sensor_id;sensor_type;location;lat;lon;timestamp;pressure;altitude;pressure_sealevel;temperature;humidity
80139;BME280;69467;59.842;17.604;2023-05-28T00:02:17;101096.44;;;12.17;57.30
80139;BME280;69467;59.842;17.604;2023-05-28T00:04:42;101096.75;;;12.20;56.94
80139;BME280;69467;59.842;17.604;2023-05-28T00:07:07;101099.66;;;12.08;57.79
80139;BME280;69467;59.842;17.604;2023-05-28T00:09:35;101087.56;;;12.04;58.16
80139;BME280;69467;59.842;17.604;2023-05-28T00:12:01;101086.50;;;12.05;58.06
80139;BME280;69467;59.842;17.604;2023-05-28T00:14:26;101087.88;;;12.08;58.48
80139;BME280;69467;59.842;17.604;2023-05-28T00:16:52;101081.78;;;12.01;57.98
80139;BME280;69467;59.842;17.604;2023-05-28T00:19:17;101073.28;;;12.02;57.67
80139;BME280;69467;59.842;17.604;2023-05-28T00:21:42;101062.88;;;12.04;57.40
80139;BME280;69467;59.842;17.604;2023-05-28T00:24:08;101065.31;;;12.01;57.25
80139;BME280;69467;59.842;17.604;2023-05-28T00:26:33;101066.69;;;12.03;57.14
80139;BME280;69467;59.842;17.604;2023-05-28T00:28:58;101052.66;;;12.00;56.96
80139;BME280;69467;59.842;17.604;2023-05-28T00:31:24;101054.03;;;11.97;57.21
80139;BME280;69467;59.842;17.604;2023-05-28T00:33:49;101057.78;;;11.91;57.39
80139;BME280;69467;59.842;17.604;2023-05-28T00:36:14;101050.09;;;11.88;56.72
80139;BME280;69467;59.842;17.604;2023-05-28T00:38:39;101048.72;;;11.85;57.16
80139;BME280;69467;59.842;17.604;2023-05-28T00:41:05;101055.63;;;11.93;56.87
80139;BME280;69467;59.842;17.604;2023-05-28T00:43:31;101046.88;;;11.96;57.14
80139;BME280;69467;59.842;17.604;2023-05-28T00:45:57;101054.59;;;11.99;57.06
80139;BME280;69467;59.842;17.604;2023-05-28T00:48:24;101041.97;;;11.98;56.83
80139;BME280;69467;59.842;17.604;2023-05-28T00:50:50;101045.53;;;11.99;56.85
80139;BME280;69467;59.842;17.604;2023-05-28T00:53:15;101048.25;;;11.99;57.36
80139;BME280;69467;59.842;17.604;2023-05-28T00:55:41;101045.72;;;11.92;57.59
80139;BME280;69467;59.842;17.604;2023-05-28T00:58:06;101040.25;;;11.92;57.31
80139;BME280;69467;59.842;17.604;2023-05-28T01:00:35;101046.88;;;11.96;57.94
80139;BME280;69467;59.842;17.604;2023-05-28T01:03:00;101046.03;;;11.96;57.64
80139;BME280;69467;59.842;17.604;2023-05-28T01:05:26;101032.56;;;11.94;57.83
80139;BME280;69467;59.842;17.604;2023-05-28T01:07:51;101027.09;;;11.94;58.16
80139;BME280;69467;59.842;17.604;2023-05-28T01:10:17;101023.03;;;11.97;57.70
80139;BME280;69467;59.842;17.604;2023-05-28T01:12:42;101021.94;;;11.98;58.21
80139;BME280;69467;59.842;17.604;2023-05-28T01:15:08;101022.22;;;12.01;57.64
80139;BME280;69467;59.842;17.604;2023-05-28T01:17:35;101027.72;;;12.01;57.94
80139;BME280;69467;59.842;17.604;2023-05-28T01:20:00;101021.97;;;12.03;58.34
80139;BME280;69467;59.842;17.604;2023-05-28T01:22:36;101029.34;;;12.02;58.19
80139;BME280;69467;59.842;17.604;2023-05-28T01:25:03;101018.13;;;12.04;58.33
80139;BME280;69467;59.842;17.604;2023-05-28T01:27:34;101020.88;;;12.04;57.91
80139;BME280;69467;59.842;17.604;2023-05-28T01:29:59;101023.63;;;12.04;58.24
80139;BME280;69467;59.842;17.604;2023-05-28T01:32:26;101023.63;;;12.04;58.87
80139;BME280;69467;59.842;17.604;2023-05-28T01:34:51;101025.53;;;12.03;58.85
80139;BME280;69467;59.842;17.604;2023-05-28T01:37:16;101021.69;;;12.04;58.55
80139;BME280;69467;59.842;17.604;2023-05-28T01:39:43;101027.75;;;12.06;58.98
80139;BME280;69467;59.842;17.604;2023-05-28T01:42:10;101018.66;;;12.06;58.92
80139;BME280;69467;59.842;17.604;2023-05-28T01:44:35;101017.59;;;12.07;59.43
80139;BME280;69467;59.842;17.604;2023-05-28T01:47:01;101022.50;;;12.05;59.34
80139;BME280;69467;59.842;17.604;2023-05-28T01:49:26;101014.53;;;12.03;59.96
80139;BME280;69467;59.842;17.604;2023-05-28T01:51:51;101022.78;;;12.03;59.94
80139;BME280;69467;59.842;17.604;2023-05-28T01:54:17;101021.69;;;12.04;60.24
80139;BME280;69467;59.842;17.604;2023-05-28T01:56:42;101020.88;;;12.04;60.30
80139;BME280;69467;59.842;17.604;2023-05-28T01:59:07;101020.88;;;12.04;60.23
80139;BME280;69467;59.842;17.604;2023-05-28T02:01:33;101018.66;;;12.06;60.03
80139;BME280;69467;59.842;17.604;2023-05-28T02:03:59;101008.00;;;12.10;59.80
80139;BME280;69467;59.842;17.604;2023-05-28T02:06:27;101017.59;;;12.07;60.03
80139;BME280;69467;59.842;17.604;2023-05-28T02:08:52;101014.03;;;12.06;60.22
80139;BME280;69467;59.842;17.604;2023-05-28T02:11:18;101009.34;;;12.07;59.70
80139;BME280;69467;59.842;17.604;2023-05-28T02:13:43;101004.69;;;12.07;61.11
80139;BME280;69467;59.842;17.604;2023-05-28T02:16:09;100986.56;;;12.06;61.02
80139;BME280;69467;59.842;17.604;2023-05-28T02:18:36;100997.56;;;12.06;61.10
80139;BME280;69467;59.842;17.604;2023-05-28T02:21:02;101001.38;;;12.05;61.11
80139;BME280;69467;59.842;17.604;2023-05-28T02:23:27;100995.91;;;12.05;60.73
80139;BME280;69467;59.842;17.604;2023-05-28T02:25:52;100988.78;;;12.10;60.98
80139;BME280;69467;59.842;17.604;2023-05-28T02:28:18;100988.22;;;12.07;61.66
80139;BME280;69467;59.842;17.604;2023-05-28T02:30:43;101008.53;;;12.06;61.84
80139;BME280;69467;59.842;17.604;2023-05-28T02:33:08;101005.50;;;12.08;62.00
80139;BME280;69467;59.842;17.604;2023-05-28T02:35:33;101000.84;;;12.08;62.14
80139;BME280;69467;59.842;17.604;2023-05-28T02:37:59;100993.16;;;12.11;61.92
80139;BME280;69467;59.842;17.604;2023-05-28T02:40:24;100994.00;;;12.11;62.73
80139;BME280;69467;59.842;17.604;2023-05-28T02:42:50;100999.47;;;12.11;62.73
80139;BME280;69467;59.842;17.604;2023-05-28T02:45:15;100986.31;;;12.13;62.32
80139;BME280;69467;59.842;17.604;2023-05-28T02:47:40;100993.47;;;12.14;62.06
80139;BME280;69467;59.842;17.604;2023-05-28T02:50:06;100984.66;;;12.12;63.24
80139;BME280;69467;59.842;17.604;2023-05-28T02:52:31;100975.63;;;12.12;62.86
80139;BME280;69467;59.842;17.604;2023-05-28T02:54:56;100972.59;;;12.13;63.13
80139;BME280;69467;59.842;17.604;2023-05-28T02:57:22;100972.31;;;12.15;63.38
80139;BME280;69467;59.842;17.604;2023-05-28T02:59:47;100963.28;;;12.14;63.20
80139;BME280;69467;59.842;17.604;2023-05-28T03:02:12;100963.00;;;12.16;63.29
80139;BME280;69467;59.842;17.604;2023-05-28T03:04:37;100968.78;;;12.19;62.98
80139;BME280;69467;59.842;17.604;2023-05-28T03:07:03;100964.69;;;12.22;62.91
80139;BME280;69467;59.842;17.604;2023-05-28T03:09:28;100971.81;;;12.23;63.34
80139;BME280;69467;59.842;17.604;2023-05-28T03:11:53;100970.16;;;12.22;63.71
80139;BME280;69467;59.842;17.604;2023-05-28T03:14:19;100957.53;;;12.21;63.80
80139;BME280;69467;59.842;17.604;2023-05-28T03:16:44;100964.94;;;12.20;63.68
80139;BME280;69467;59.842;17.604;2023-05-28T03:19:10;100975.66;;;12.22;63.58
80139;BME280;69467;59.842;17.604;2023-05-28T03:21:35;100988.84;;;12.20;63.84
80139;BME280;69467;59.842;17.604;2023-05-28T03:24:01;100963.28;;;12.19;63.97
80139;BME280;69467;59.842;17.604;2023-05-28T03:26:26;100960.28;;;12.21;63.58
80139;BME280;69467;59.842;17.604;2023-05-28T03:28:51;100958.66;;;12.20;64.11
80139;BME280;69467;59.842;17.604;2023-05-28T03:31:16;100968.78;;;12.19;64.41
80139;BME280;69467;59.842;17.604;2023-05-28T03:33:42;100977.03;;;12.19;64.88
80139;BME280;69467;59.842;17.604;2023-05-28T03:36:07;100968.50;;;12.21;65.19
80139;BME280;69467;59.842;17.604;2023-05-28T03:38:32;100965.75;;;12.21;64.95
80139;BME280;69467;59.842;17.604;2023-05-28T03:40:58;100977.59;;;12.21;64.85
80139;BME280;69467;59.842;17.604;2023-05-28T03:43:24;100971.25;;;12.21;64.72
80139;BME280;69467;59.842;17.604;2023-05-28T03:45:49;100976.75;;;12.21;64.80
80139;BME280;69467;59.842;17.604;2023-05-28T03:48:15;100978.69;;;12.20;65.46
80139;BME280;69467;59.842;17.604;2023-05-28T03:50:40;100979.19;;;12.17;65.45
80139;BME280;69467;59.842;17.604;2023-05-28T03:53:06;100973.69;;;12.17;65.31
80139;BME280;69467;59.842;17.604;2023-05-28T03:55:32;100968.25;;;12.22;65.82
80139;BME280;69467;59.842;17.604;2023-05-28T03:57:57;100966.25;;;12.07;67.15
80139;BME280;69467;59.842;17.604;2023-05-28T04:00:22;100966.28;;;12.13;67.05
80139;BME280;69467;59.842;17.604;2023-05-28T04:02:48;100963.53;;;12.07;66.91
80139;BME280;69467;59.842;17.604;2023-05-28T04:05:13;100955.50;;;12.01;67.11
80139;BME280;69467;59.842;17.604;2023-05-28T04:07:38;100956.59;;;12.00;67.96
80139;BME280;69467;59.842;17.604;2023-05-28T04:10:04;100953.84;;;12.00;67.81
80139;BME280;69467;59.842;17.604;2023-05-28T04:12:29;100962.88;;;11.95;68.00
80139;BME280;69467;59.842;17.604;2023-05-28T04:14:55;100957.97;;;11.97;67.52
80139;BME280;69467;59.842;17.604;2023-05-28T04:17:21;100944.75;;;11.94;68.05
80139;BME280;69467;59.842;17.604;2023-05-28T04:19:46;100936.50;;;11.89;68.38
80139;BME280;69467;59.842;17.604;2023-05-28T04:22:11;100940.31;;;11.88;68.14
80139;BME280;69467;59.842;17.604;2023-05-28T04:24:36;100937.56;;;11.88;68.02
80139;BME280;69467;59.842;17.604;2023-05-28T04:27:02;100946.88;;;11.82;68.75
80139;BME280;69467;59.842;17.604;2023-05-28T04:29:28;100936.69;;;11.77;69.27
80139;BME280;69467;59.842;17.604;2023-05-28T04:31:56;100948.47;;;11.77;68.65
80139;BME280;69467;59.842;17.604;2023-05-28T04:34:22;100955.03;;;11.76;69.58
80139;BME280;69467;59.842;17.604;2023-05-28T04:36:50;100948.22;;;11.79;69.02
80139;BME280;69467;59.842;17.604;2023-05-28T04:39:16;100947.94;;;11.75;69.55
80139;BME280;69467;59.842;17.604;2023-05-28T04:41:42;100950.63;;;11.70;70.02
80139;BME280;69467;59.842;17.604;2023-05-28T04:44:08;100945.69;;;11.72;70.07
80139;BME280;69467;59.842;17.604;2023-05-28T04:46:33;100949.56;;;11.76;70.08
80139;BME280;69467;59.842;17.604;2023-05-28T04:48:59;100948.13;;;11.69;71.04
80139;BME280;69467;59.842;17.604;2023-05-28T04:51:24;100942.34;;;11.65;71.17
80139;BME280;69467;59.842;17.604;2023-05-28T04:53:49;100944.00;;;11.66;70.30
80139;BME280;69467;59.842;17.604;2023-05-28T04:56:15;100941.31;;;11.71;70.90
80139;BME280;69467;59.842;17.604;2023-05-28T04:58:41;100935.84;;;11.76;70.86
80139;BME280;69467;59.842;17.604;2023-05-28T05:01:06;100926.19;;;11.69;72.20
80139;BME280;69467;59.842;17.604;2023-05-28T05:03:32;100934.44;;;11.74;71.11
80139;BME280;69467;59.842;17.604;2023-05-28T05:05:57;100935.00;;;11.71;72.03
80139;BME280;69467;59.842;17.604;2023-05-28T05:08:22;100935.28;;;11.74;72.53
80139;BME280;69467;59.842;17.604;2023-05-28T05:10:48;100935.81;;;11.71;71.68
80139;BME280;69467;59.842;17.604;2023-05-28T05:13:14;100934.44;;;11.74;72.33
80139;BME280;69467;59.842;17.604;2023-05-28T05:15:39;100935.28;;;11.74;72.17
80139;BME280;69467;59.842;17.604;2023-05-28T05:18:04;100932.56;;;11.74;72.43
80139;BME280;69467;59.842;17.604;2023-05-28T05:20:30;100924.03;;;11.76;72.16
80139;BME280;69467;59.842;17.604;2023-05-28T05:22:55;100925.72;;;11.77;72.22
80139;BME280;69467;59.842;17.604;2023-05-28T05:25:22;100925.72;;;11.82;72.44
80139;BME280;69467;59.842;17.604;2023-05-28T05:27:50;100925.16;;;11.80;72.87
80139;BME280;69467;59.842;17.604;2023-05-28T05:30:18;100922.72;;;11.84;72.66
80139;BME280;69467;59.842;17.604;2023-05-28T05:32:43;100928.25;;;11.89;71.98
80139;BME280;69467;59.842;17.604;2023-05-28T05:35:09;100916.97;;;11.85;72.91
80139;BME280;69467;59.842;17.604;2023-05-28T05:37:34;100917.53;;;11.87;73.05
80139;BME280;69467;59.842;17.604;2023-05-28T05:40:00;100927.97;;;11.85;73.15
80139;BME280;69467;59.842;17.604;2023-05-28T05:42:26;100914.53;;;11.89;72.77
80139;BME280;69467;59.842;17.604;2023-05-28T05:44:52;100915.63;;;11.93;72.98
80139;BME280;69467;59.842;17.604;2023-05-28T05:47:17;100924.16;;;11.91;73.03
80139;BME280;69467;59.842;17.604;2023-05-28T05:49:42;100926.94;;;11.97;72.72
80139;BME280;69467;59.842;17.604;2023-05-28T05:52:07;100919.53;;;11.97;73.39
80139;BME280;69467;59.842;17.604;2023-05-28T05:54:33;100917.31;;;11.94;73.41
80139;BME280;69467;59.842;17.604;2023-05-28T05:56:58;100921.13;;;11.93;73.58
80139;BME280;69467;59.842;17.604;2023-05-28T05:59:24;100918.44;;;11.98;73.09
80139;BME280;69467;59.842;17.604;2023-05-28T06:01:49;100921.19;;;11.98;73.64
80139;BME280;69467;59.842;17.604;2023-05-28T06:04:14;100911.59;;;12.01;72.99
80139;BME280;69467;59.842;17.604;2023-05-28T06:06:39;100914.34;;;12.06;73.15
80139;BME280;69467;59.842;17.604;2023-05-28T06:09:05;100918.75;;;12.07;72.80
80139;BME280;69467;59.842;17.604;2023-05-28T06:11:31;100910.53;;;12.07;72.92
80139;BME280;69467;59.842;17.604;2023-05-28T06:13:56;100911.59;;;12.01;73.11
80139;BME280;69467;59.842;17.604;2023-05-28T06:16:22;100912.69;;;12.00;73.53
80139;BME280;69467;59.842;17.604;2023-05-28T06:18:47;100912.38;;;11.96;74.04
80139;BME280;69467;59.842;17.604;2023-05-28T06:21:12;100916.78;;;11.97;73.70
80139;BME280;69467;59.842;17.604;2023-05-28T06:23:38;100920.09;;;11.99;73.44
80139;BME280;69467;59.842;17.604;2023-05-28T06:26:03;100910.50;;;12.02;73.84
80139;BME280;69467;59.842;17.604;2023-05-28T06:28:30;100912.69;;;12.05;73.56
80139;BME280;69467;59.842;17.604;2023-05-28T06:30:55;100908.88;;;12.06;73.87
80139;BME280;69467;59.842;17.604;2023-05-28T06:33:20;100914.66;;;12.10;72.90
80139;BME280;69467;59.842;17.604;2023-05-28T06:35:45;100917.13;;;12.11;72.76
80139;BME280;69467;59.842;17.604;2023-05-28T06:38:11;100909.69;;;12.06;73.63
80139;BME280;69467;59.842;17.604;2023-05-28T06:40:36;100915.41;;;12.00;75.31
80139;BME280;69467;59.842;17.604;2023-05-28T06:43:01;100910.47;;;11.97;75.45
80139;BME280;69467;59.842;17.604;2023-05-28T06:45:27;100906.94;;;12.01;75.24
80139;BME280;69467;59.842;17.604;2023-05-28T06:47:53;100913.53;;;12.05;75.14
80139;BME280;69467;59.842;17.604;2023-05-28T06:50:19;100909.16;;;12.10;74.96
80139;BME280;69467;59.842;17.604;2023-05-28T06:52:44;100899.53;;;12.02;75.16
80139;BME280;69467;59.842;17.604;2023-05-28T06:55:09;100901.72;;;12.05;75.04
80139;BME280;69467;59.842;17.604;2023-05-28T06:57:35;100900.38;;;12.07;74.92
80139;BME280;69467;59.842;17.604;2023-05-28T07:00:04;100910.53;;;12.12;74.80
80139;BME280;69467;59.842;17.604;2023-05-28T07:02:48;100904.00;;;12.23;74.98
80139;BME280;69467;59.842;17.604;2023-05-28T07:05:13;100903.84;;;12.56;74.06
80139;BME280;69467;59.842;17.604;2023-05-28T07:07:38;100896.47;;;12.98;71.67
80139;BME280;69467;59.842;17.604;2023-05-28T07:10:04;100892.34;;;13.42;69.55
80139;BME280;69467;59.842;17.604;2023-05-28T07:12:29;100890.16;;;13.49;68.46
80139;BME280;69467;59.842;17.604;2023-05-28T07:14:54;100894.00;;;13.58;68.32
80139;BME280;69467;59.842;17.604;2023-05-28T07:17:20;100893.16;;;13.37;68.71
80139;BME280;69467;59.842;17.604;2023-05-28T07:19:46;100887.41;;;13.13;69.70
80139;BME280;69467;59.842;17.604;2023-05-28T07:22:11;100884.94;;;13.11;69.67
80139;BME280;69467;59.842;17.604;2023-05-28T07:24:36;100882.44;;;13.10;69.13
80139;BME280;69467;59.842;17.604;2023-05-28T07:27:01;100878.03;;;13.03;69.83
80139;BME280;69467;59.842;17.604;2023-05-28T07:29:27;100885.22;;;13.20;69.02
80139;BME280;69467;59.842;17.604;2023-05-28T07:31:53;100880.81;;;13.14;69.37
80139;BME280;69467;59.842;17.604;2023-05-28T07:34:18;100881.34;;;13.16;69.23
80139;BME280;69467;59.842;17.604;2023-05-28T07:36:43;100876.66;;;13.32;68.75
80139;BME280;69467;59.842;17.604;2023-05-28T07:39:08;100862.38;;;13.56;67.38
80139;BME280;69467;59.842;17.604;2023-05-28T07:41:35;100868.41;;;13.32;68.29
80139;BME280;69467;59.842;17.604;2023-05-28T07:44:00;100864.03;;;13.46;67.54
80139;BME280;69467;59.842;17.604;2023-05-28T07:46:26;100860.16;;;13.52;67.33
80139;BME280;69467;59.842;17.604;2023-05-28T07:48:51;100861.25;;;13.51;66.89
80139;BME280;69467;59.842;17.604;2023-05-28T07:51:16;100864.56;;;13.38;66.74
80139;BME280;69467;59.842;17.604;2023-05-28T07:53:42;100875.31;;;13.40;66.39
80139;BME280;69467;59.842;17.604;2023-05-28T07:56:08;100869.78;;;13.50;66.30
80139;BME280;69467;59.842;17.604;2023-05-28T07:58:33;100880.22;;;13.63;65.38
80139;BME280;69467;59.842;17.604;2023-05-28T08:00:58;100873.03;;;13.73;65.16
80139;BME280;69467;59.842;17.604;2023-05-28T08:03:24;100882.09;;;13.83;63.94
80139;BME280;69467;59.842;17.604;2023-05-28T08:05:52;100882.91;;;13.84;63.92
80139;BME280;69467;59.842;17.604;2023-05-28T08:08:17;100866.25;;;14.20;64.00
80139;BME280;69467;59.842;17.604;2023-05-28T08:10:43;100868.91;;;14.86;61.30
80139;BME280;69467;59.842;17.604;2023-05-28T08:13:08;100866.66;;;14.93;61.27
80139;BME280;69467;59.842;17.604;2023-05-28T08:15:33;100866.84;;;15.02;59.97
80139;BME280;69467;59.842;17.604;2023-05-28T08:17:59;100868.22;;;15.04;60.82
80139;BME280;69467;59.842;17.604;2023-05-28T08:20:24;100860.44;;;15.11;59.92
80139;BME280;69467;59.842;17.604;2023-05-28T08:22:50;100864.06;;;15.07;59.51
80139;BME280;69467;59.842;17.604;2023-05-28T08:25:15;100854.91;;;15.41;58.27
80139;BME280;69467;59.842;17.604;2023-05-28T08:27:40;100859.28;;;15.71;57.62
80139;BME280;69467;59.842;17.604;2023-05-28T08:30:06;100847.34;;;15.76;55.83
80139;BME280;69467;59.842;17.604;2023-05-28T08:32:31;100850.97;;;15.71;54.75
80139;BME280;69467;59.842;17.604;2023-05-28T08:34:57;100850.50;;;15.40;53.71
80139;BME280;69467;59.842;17.604;2023-05-28T08:37:22;100847.03;;;15.29;54.74
80139;BME280;69467;59.842;17.604;2023-05-28T08:39:47;100842.41;;;15.19;54.27
80139;BME280;69467;59.842;17.604;2023-05-28T08:42:13;100843.44;;;15.28;53.52
80139;BME280;69467;59.842;17.604;2023-05-28T08:44:38;100834.09;;;15.24;54.38
80139;BME280;69467;59.842;17.604;2023-05-28T08:47:03;100840.09;;;15.32;54.77
80139;BME280;69467;59.842;17.604;2023-05-28T08:49:30;100836.00;;;15.77;53.90
80139;BME280;69467;59.842;17.604;2023-05-28T08:51:56;100835.91;;;15.64;54.87
80139;BME280;69467;59.842;17.604;2023-05-28T08:54:24;100837.28;;;15.90;53.32
80139;BME280;69467;59.842;17.604;2023-05-28T08:56:50;100826.72;;;15.44;55.26
80139;BME280;69467;59.842;17.604;2023-05-28T08:59:16;100831.44;;;15.43;54.79
80139;BME280;69467;59.842;17.604;2023-05-28T09:01:41;100827.69;;;15.58;55.14
80139;BME280;69467;59.842;17.604;2023-05-28T09:04:06;100821.69;;;15.51;54.86
80139;BME280;69467;59.842;17.604;2023-05-28T09:06:32;100830.59;;;15.43;54.77
80139;BME280;69467;59.842;17.604;2023-05-28T09:08:57;100825.94;;;16.11;53.64
80139;BME280;69467;59.842;17.604;2023-05-28T09:11:22;100809.59;;;15.96;53.00
80139;BME280;69467;59.842;17.604;2023-05-28T09:13:48;100820.38;;;16.54;50.33
80139;BME280;69467;59.842;17.604;2023-05-28T09:16:20;100818.63;;;16.39;50.71
80139;BME280;69467;59.842;17.604;2023-05-28T09:18:49;100825.34;;;16.71;50.64
80139;BME280;69467;59.842;17.604;2023-05-28T09:21:15;100811.69;;;16.42;50.19
80139;BME280;69467;59.842;17.604;2023-05-28T09:23:41;100823.13;;;16.35;50.03
80139;BME280;69467;59.842;17.604;2023-05-28T09:26:09;100820.38;;;16.16;50.34
80139;BME280;69467;59.842;17.604;2023-05-28T09:28:34;100817.94;;;16.09;50.82
80139;BME280;69467;59.842;17.604;2023-05-28T09:31:03;100822.56;;;15.46;51.39
80139;BME280;69467;59.842;17.604;2023-05-28T09:33:29;100823.97;;;15.68;51.76
80139;BME280;69467;59.842;17.604;2023-05-28T09:35:58;100820.09;;;15.69;51.60
80139;BME280;69467;59.842;17.604;2023-05-28T09:38:24;100812.03;;;15.73;50.56
80139;BME280;69467;59.842;17.604;2023-05-28T09:40:51;100815.03;;;15.76;49.74
80139;BME280;69467;59.842;17.604;2023-05-28T09:43:18;100817.22;;;15.80;49.41
80139;BME280;69467;59.842;17.604;2023-05-28T09:45:51;100820.19;;;16.07;49.17
80139;BME280;69467;59.842;17.604;2023-05-28T09:48:16;100811.06;;;15.88;49.28
80139;BME280;69467;59.842;17.604;2023-05-28T09:50:42;100814.56;;;15.93;49.21
80139;BME280;69467;59.842;17.604;2023-05-28T09:53:07;100809.97;;;16.27;46.83
80139;BME280;69467;59.842;17.604;2023-05-28T09:55:33;100806.09;;;16.28;46.75
80139;BME280;69467;59.842;17.604;2023-05-28T10:00:31;100795.91;;;17.42;44.56
80139;BME280;69467;59.842;17.604;2023-05-28T10:03:05;100789.44;;;17.74;42.32
80139;BME280;69467;59.842;17.604;2023-05-28T10:05:35;100803.00;;;17.62;41.80
80139;BME280;69467;59.842;17.604;2023-05-28T10:08:01;100787.50;;;17.47;42.32
80139;BME280;69467;59.842;17.604;2023-05-28T10:10:28;100797.03;;;17.41;40.74
80139;BME280;69467;59.842;17.604;2023-05-28T10:12:54;100801.56;;;17.50;41.93
80139;BME280;69467;59.842;17.604;2023-05-28T10:15:20;100792.53;;;18.00;44.30
80139;BME280;69467;59.842;17.604;2023-05-28T10:17:45;100795.94;;;18.34;42.67
80139;BME280;69467;59.842;17.604;2023-05-28T10:20:11;100827.22;;;18.71;41.24
80139;BME280;69467;59.842;17.604;2023-05-28T10:22:40;100799.50;;;18.71;42.11
80139;BME280;69467;59.842;17.604;2023-05-28T10:25:06;100809.94;;;19.20;41.11
80139;BME280;69467;59.842;17.604;2023-05-28T10:27:33;100808.44;;;19.13;41.61
80139;BME280;69467;59.842;17.604;2023-05-28T10:30:02;100813.28;;;18.62;40.79
80139;BME280;69467;59.842;17.604;2023-05-28T10:32:28;100818.25;;;18.29;43.16
80139;BME280;69467;59.842;17.604;2023-05-28T10:35:00;100812.13;;;17.62;43.82
80139;BME280;69467;59.842;17.604;2023-05-28T10:37:25;100850.97;;;17.43;50.55
80139;BME280;69467;59.842;17.604;2023-05-28T10:39:50;100865.47;;;17.07;51.99
80139;BME280;69467;59.842;17.604;2023-05-28T10:42:16;100855.16;;;16.94;54.14
80139;BME280;69467;59.842;17.604;2023-05-28T10:44:52;100844.16;;;16.88;55.36
80139;BME280;69467;59.842;17.604;2023-05-28T10:47:18;100834.56;;;17.47;54.06
80139;BME280;69467;59.842;17.604;2023-05-28T10:49:59;100835.53;;;17.98;52.07
80139;BME280;69467;59.842;17.604;2023-05-28T10:52:27;100833.25;;;17.86;49.85
80139;BME280;69467;59.842;17.604;2023-05-28T10:54:55;100832.59;;;18.31;49.50
80139;BME280;69467;59.842;17.604;2023-05-28T10:57:21;100826.16;;;18.22;49.23
80139;BME280;69467;59.842;17.604;2023-05-28T11:02:20;100833.94;;;18.33;48.23
80139;BME280;69467;59.842;17.604;2023-05-28T11:04:49;100835.09;;;18.18;47.49
80139;BME280;69467;59.842;17.604;2023-05-28T11:07:14;100846.50;;;17.89;49.13
80139;BME280;69467;59.842;17.604;2023-05-28T11:09:40;100852.25;;;17.51;51.33
80139;BME280;69467;59.842;17.604;2023-05-28T11:12:05;100861.22;;;17.29;52.46
80139;BME280;69467;59.842;17.604;2023-05-28T11:14:35;100879.84;;;17.23;52.94
80139;BME280;69467;59.842;17.604;2023-05-28T11:17:01;100890.28;;;17.12;54.05
80139;BME280;69467;59.842;17.604;2023-05-28T11:19:26;100883.50;;;16.66;53.91
80139;BME280;69467;59.842;17.604;2023-05-28T11:21:54;100906.06;;;16.73;53.91
80139;BME280;69467;59.842;17.604;2023-05-28T11:24:23;100904.06;;;16.79;54.23
80139;BME280;69467;59.842;17.604;2023-05-28T11:26:48;100908.97;;;16.82;54.80
80139;BME280;69467;59.842;17.604;2023-05-28T11:29:16;100892.81;;;16.89;54.83
80139;BME280;69467;59.842;17.604;2023-05-28T11:31:42;100902.47;;;17.11;53.86
80139;BME280;69467;59.842;17.604;2023-05-28T11:34:07;100898.50;;;17.17;55.43
80139;BME280;69467;59.842;17.604;2023-05-28T11:36:42;100894.88;;;17.36;54.07
80139;BME280;69467;59.842;17.604;2023-05-28T11:39:08;100906.03;;;17.92;52.10
80139;BME280;69467;59.842;17.604;2023-05-28T11:41:34;100891.69;;;18.17;52.85
80139;BME280;69467;59.842;17.604;2023-05-28T11:43:59;100890.22;;;18.34;52.27
80139;BME280;69467;59.842;17.604;2023-05-28T11:46:24;100892.47;;;18.32;50.76
80139;BME280;69467;59.842;17.604;2023-05-28T11:51:00;100898.94;;;18.13;51.94
80139;BME280;69467;59.842;17.604;2023-05-28T11:56:05;100957.84;;;17.44;53.30
80139;BME280;69467;59.842;17.604;2023-05-28T11:58:31;100929.25;;;17.16;50.88
80139;BME280;69467;59.842;17.604;2023-05-28T12:00:56;100931.56;;;16.89;53.75
80139;BME280;69467;59.842;17.604;2023-05-28T12:03:25;100932.75;;;17.21;53.94
80139;BME280;69467;59.842;17.604;2023-05-28T12:05:51;100933.75;;;17.45;53.25
80139;BME280;69467;59.842;17.604;2023-05-28T12:08:17;100936.59;;;17.39;55.24
80139;BME280;69467;59.842;17.604;2023-05-28T12:10:43;100927.16;;;17.41;54.61
80139;BME280;69467;59.842;17.604;2023-05-28T12:13:08;100927.06;;;17.93;54.87
80139;BME280;69467;59.842;17.604;2023-05-28T12:15:36;100909.41;;;18.30;53.40
80139;BME280;69467;59.842;17.604;2023-05-28T12:18:02;100895.97;;;18.38;52.71
80139;BME280;69467;59.842;17.604;2023-05-28T12:20:29;100904.78;;;18.26;52.41
80139;BME280;69467;59.842;17.604;2023-05-28T12:23:04;100909.28;;;18.49;52.04
80139;BME280;69467;59.842;17.604;2023-05-28T12:28:08;100907.28;;;18.27;52.34
80139;BME280;69467;59.842;17.604;2023-05-28T12:30:33;100917.13;;;18.33;52.15
80139;BME280;69467;59.842;17.604;2023-05-28T12:32:59;100932.25;;;18.64;51.76
80139;BME280;69467;59.842;17.604;2023-05-28T12:35:25;100903.34;;;18.79;51.12
80139;BME280;69467;59.842;17.604;2023-05-28T12:37:50;100918.03;;;18.93;49.53
80139;BME280;69467;59.842;17.604;2023-05-28T12:40:15;100899.50;;;19.03;49.43
80139;BME280;69467;59.842;17.604;2023-05-28T12:42:41;100890.78;;;19.18;48.23
80139;BME280;69467;59.842;17.604;2023-05-28T12:45:07;100900.47;;;19.29;45.39
80139;BME280;69467;59.842;17.604;2023-05-28T12:47:32;100900.66;;;19.33;46.58